sensor_id;sensor_type;location;lat;lon;timestamp;P1;durP1;ratioP1;P2;durP2;ratioP2
6566;SDS011;3317;43.994;22.878;2022-11-15T00:02:15;14.80;;;9.47;;
6566;SDS011;3317;43.994;22.878;2022-11-15T00:04:42;12.17;;;7.53;;
6566;SDS011;3317;43.994;22.878;2022-11-15T00:07:09;11.80;;;8.17;;
6566;SDS011;3317;43.994;22.878;2022-11-15T00:09:36;18.30;;;9.87;;
6566;SDS011;3317;43.994;22.878;2022-11-15T00:12:04;14.13;;;8.20;;
6566;SDS011;3317;43.994;22.878;2022-11-15T00:14:31;10.40;;;6.30;;
6566;SDS011;3317;43.994;22.878;2022-11-15T00:16:58;11.50;;;7.50;;
6566;SDS011;3317;43.994;22.878;2022-11-15T00:19:25;13.90;;;8.17;;
6566;SDS011;3317;43.994;22.878;2022-11-15T00:21:52;14.40;;;9.00;;
6566;SDS011;3317;43.994;22.878;2022-11-15T00:24:19;16.10;;;9.63;;
6566;SDS011;3317;43.994;22.878;2022-11-15T00:26:46;14.73;;;10.10;;
6566;SDS011;3317;43.994;22.878;2022-11-15T00:29:14;15.33;;;9.50;;
6566;SDS011;3317;43.994;22.878;2022-11-15T00:31:41;15.30;;;9.00;;
6566;SDS011;3317;43.994;22.878;2022-11-15T00:34:08;16.20;;;9.67;;
6566;SDS011;3317;43.994;22.878;2022-11-15T00:36:36;24.73;;;10.57;;
6566;SDS011;3317;43.994;22.878;2022-11-15T00:39:03;15.33;;;9.60;;
6566;SDS011;3317;43.994;22.878;2022-11-15T00:41:30;14.50;;;9.27;;
6566;SDS011;3317;43.994;22.878;2022-11-15T00:43:57;10.93;;;7.47;;
6566;SDS011;3317;43.994;22.878;2022-11-15T00:46:25;10.30;;;7.40;;
6566;SDS011;3317;43.994;22.878;2022-11-15T00:48:52;18.00;;;9.60;;
6566;SDS011;3317;43.994;22.878;2022-11-15T00:51:19;14.23;;;9.03;;
6566;SDS011;3317;43.994;22.878;2022-11-15T00:53:46;28.43;;;10.33;;
6566;SDS011;3317;43.994;22.878;2022-11-15T00:56:13;14.20;;;8.53;;
6566;SDS011;3317;43.994;22.878;2022-11-15T00:58:40;13.73;;;8.50;;
6566;SDS011;3317;43.994;22.878;2022-11-15T01:01:08;14.30;;;8.60;;
6566;SDS011;3317;43.994;22.878;2022-11-15T01:03:38;12.87;;;7.77;;
6566;SDS011;3317;43.994;22.878;2022-11-15T01:06:06;16.40;;;9.10;;
6566;SDS011;3317;43.994;22.878;2022-11-15T01:08:37;14.87;;;9.30;;
6566;SDS011;3317;43.994;22.878;2022-11-15T01:11:05;15.83;;;8.43;;
6566;SDS011;3317;43.994;22.878;2022-11-15T01:13:34;12.90;;;8.23;;
6566;SDS011;3317;43.994;22.878;2022-11-15T01:16:05;16.50;;;9.13;;
6566;SDS011;3317;43.994;22.878;2022-11-15T01:18:33;16.43;;;9.30;;
6566;SDS011;3317;43.994;22.878;2022-11-15T01:21:04;15.60;;;8.37;;
6566;SDS011;3317;43.994;22.878;2022-11-15T01:23:31;12.80;;;7.90;;
6566;SDS011;3317;43.994;22.878;2022-11-15T01:25:59;14.10;;;8.70;;
6566;SDS011;3317;43.994;22.878;2022-11-15T01:28:29;18.90;;;10.30;;
6566;SDS011;3317;43.994;22.878;2022-11-15T01:30:57;15.90;;;9.47;;
6566;SDS011;3317;43.994;22.878;2022-11-15T01:33:24;12.50;;;7.70;;
6566;SDS011;3317;43.994;22.878;2022-11-15T01:35:51;14.00;;;8.63;;
6566;SDS011;3317;43.994;22.878;2022-11-15T01:38:20;16.50;;;9.00;;
6566;SDS011;3317;43.994;22.878;2022-11-15T01:40:47;16.50;;;9.87;;
6566;SDS011;3317;43.994;22.878;2022-11-15T01:43:20;12.70;;;7.90;;
6566;SDS011;3317;43.994;22.878;2022-11-15T01:45:49;15.60;;;8.93;;
6566;SDS011;3317;43.994;22.878;2022-11-15T01:48:21;16.27;;;9.67;;
6566;SDS011;3317;43.994;22.878;2022-11-15T01:50:52;18.07;;;10.70;;
6566;SDS011;3317;43.994;22.878;2022-11-15T01:53:20;14.00;;;9.10;;
6566;SDS011;3317;43.994;22.878;2022-11-15T01:55:49;17.37;;;9.50;;
6566;SDS011;3317;43.994;22.878;2022-11-15T01:58:16;16.23;;;10.47;;
6566;SDS011;3317;43.994;22.878;2022-11-15T02:00:43;14.27;;;8.40;;
6566;SDS011;3317;43.994;22.878;2022-11-15T02:03:10;12.43;;;7.93;;
6566;SDS011;3317;43.994;22.878;2022-11-15T02:05:37;16.43;;;8.50;;
6566;SDS011;3317;43.994;22.878;2022-11-15T02:08:04;13.70;;;8.27;;
6566;SDS011;3317;43.994;22.878;2022-11-15T02:10:34;14.97;;;9.17;;
6566;SDS011;3317;43.994;22.878;2022-11-15T02:13:01;16.70;;;9.97;;
6566;SDS011;3317;43.994;22.878;2022-11-15T02:15:30;16.63;;;10.60;;
6566;SDS011;3317;43.994;22.878;2022-11-15T02:18:09;15.20;;;9.30;;
6566;SDS011;3317;43.994;22.878;2022-11-15T02:21:06;13.27;;;8.10;;
6566;SDS011;3317;43.994;22.878;2022-11-15T02:23:53;12.40;;;8.17;;
6566;SDS011;3317;43.994;22.878;2022-11-15T02:30:04;15.80;;;10.20;;
6566;SDS011;3317;43.994;22.878;2022-11-15T02:32:47;15.80;;;9.70;;
6566;SDS011;3317;43.994;22.878;2022-11-15T02:35:20;17.40;;;10.97;;
6566;SDS011;3317;43.994;22.878;2022-11-15T02:37:55;16.00;;;10.90;;
6566;SDS011;3317;43.994;22.878;2022-11-15T02:40:27;16.70;;;9.40;;
6566;SDS011;3317;43.994;22.878;2022-11-15T02:43:01;21.00;;;11.70;;
6566;SDS011;3317;43.994;22.878;2022-11-15T02:45:53;19.70;;;11.53;;
6566;SDS011;3317;43.994;22.878;2022-11-15T02:48:28;21.70;;;11.53;;
6566;SDS011;3317;43.994;22.878;2022-11-15T02:50:56;21.63;;;11.40;;
6566;SDS011;3317;43.994;22.878;2022-11-15T02:53:24;16.93;;;10.00;;
6566;SDS011;3317;43.994;22.878;2022-11-15T02:55:52;19.33;;;11.10;;
6566;SDS011;3317;43.994;22.878;2022-11-15T02:58:45;20.07;;;12.13;;
6566;SDS011;3317;43.994;22.878;2022-11-15T03:01:26;18.87;;;12.10;;
6566;SDS011;3317;43.994;22.878;2022-11-15T03:04:07;20.77;;;11.93;;
6566;SDS011;3317;43.994;22.878;2022-11-15T03:06:44;20.93;;;12.70;;
6566;SDS011;3317;43.994;22.878;2022-11-15T03:09:19;77.03;;;46.87;;
6566;SDS011;3317;43.994;22.878;2022-11-15T03:11:56;38.57;;;25.03;;
6566;SDS011;3317;43.994;22.878;2022-11-15T03:14:29;24.23;;;15.73;;
6566;SDS011;3317;43.994;22.878;2022-11-15T03:17:01;21.20;;;14.63;;
6566;SDS011;3317;43.994;22.878;2022-11-15T03:19:33;23.97;;;11.27;;
6566;SDS011;3317;43.994;22.878;2022-11-15T03:22:06;19.30;;;11.70;;
6566;SDS011;3317;43.994;22.878;2022-11-15T03:24:38;22.60;;;16.37;;
6566;SDS011;3317;43.994;22.878;2022-11-15T03:27:05;23.90;;;14.03;;
6566;SDS011;3317;43.994;22.878;2022-11-15T03:29:35;18.37;;;12.30;;
6566;SDS011;3317;43.994;22.878;2022-11-15T03:32:07;18.73;;;12.50;;
6566;SDS011;3317;43.994;22.878;2022-11-15T03:34:39;24.00;;;14.90;;
6566;SDS011;3317;43.994;22.878;2022-11-15T03:37:09;24.10;;;16.17;;
6566;SDS011;3317;43.994;22.878;2022-11-15T03:39:40;25.83;;;15.97;;
6566;SDS011;3317;43.994;22.878;2022-11-15T03:42:10;25.70;;;14.83;;
6566;SDS011;3317;43.994;22.878;2022-11-15T03:44:48;20.73;;;12.60;;
6566;SDS011;3317;43.994;22.878;2022-11-15T03:47:23;23.17;;;12.13;;
6566;SDS011;3317;43.994;22.878;2022-11-15T03:49:55;19.20;;;10.77;;
6566;SDS011;3317;43.994;22.878;2022-11-15T03:52:26;19.50;;;10.93;;
6566;SDS011;3317;43.994;22.878;2022-11-15T03:54:58;22.80;;;13.57;;
6566;SDS011;3317;43.994;22.878;2022-11-15T03:57:28;22.63;;;13.57;;
6566;SDS011;3317;43.994;22.878;2022-11-15T03:59:55;20.77;;;11.97;;
6566;SDS011;3317;43.994;22.878;2022-11-15T04:02:23;20.50;;;11.17;;
6566;SDS011;3317;43.994;22.878;2022-11-15T04:04:50;20.00;;;10.97;;
6566;SDS011;3317;43.994;22.878;2022-11-15T04:07:17;15.33;;;9.50;;
6566;SDS011;3317;43.994;22.878;2022-11-15T04:09:44;20.87;;;12.50;;
6566;SDS011;3317;43.994;22.878;2022-11-15T04:12:30;30.77;;;15.70;;
6566;SDS011;3317;43.994;22.878;2022-11-15T04:14:59;22.67;;;14.83;;
6566;SDS011;3317;43.994;22.878;2022-11-15T04:17:38;21.00;;;13.77;;
6566;SDS011;3317;43.994;22.878;2022-11-15T04:20:07;16.83;;;11.23;;
6566;SDS011;3317;43.994;22.878;2022-11-15T04:22:53;20.07;;;11.73;;
6566;SDS011;3317;43.994;22.878;2022-11-15T04:25:38;21.43;;;14.10;;
6566;SDS011;3317;43.994;22.878;2022-11-15T04:28:05;17.83;;;12.37;;
6566;SDS011;3317;43.994;22.878;2022-11-15T04:30:32;18.80;;;11.40;;
6566;SDS011;3317;43.994;22.878;2022-11-15T04:33:01;24.40;;;14.77;;
6566;SDS011;3317;43.994;22.878;2022-11-15T04:35:28;35.60;;;27.70;;
6566;SDS011;3317;43.994;22.878;2022-11-15T04:37:55;27.83;;;19.93;;
6566;SDS011;3317;43.994;22.878;2022-11-15T04:40:21;23.93;;;18.40;;
6566;SDS011;3317;43.994;22.878;2022-11-15T04:42:48;23.03;;;15.60;;
6566;SDS011;3317;43.994;22.878;2022-11-15T04:45:15;20.87;;;15.70;;
6566;SDS011;3317;43.994;22.878;2022-11-15T04:47:42;25.10;;;19.97;;
6566;SDS011;3317;43.994;22.878;2022-11-15T04:50:12;30.87;;;24.03;;
6566;SDS011;3317;43.994;22.878;2022-11-15T04:52:40;23.53;;;19.00;;
6566;SDS011;3317;43.994;22.878;2022-11-15T04:55:07;29.20;;;20.97;;
6566;SDS011;3317;43.994;22.878;2022-11-15T04:57:34;30.83;;;18.33;;
6566;SDS011;3317;43.994;22.878;2022-11-15T05:00:02;24.30;;;15.20;;
6566;SDS011;3317;43.994;22.878;2022-11-15T05:02:30;22.37;;;14.90;;
6566;SDS011;3317;43.994;22.878;2022-11-15T05:05:13;22.30;;;14.90;;
6566;SDS011;3317;43.994;22.878;2022-11-15T05:07:40;35.33;;;23.90;;
6566;SDS011;3317;43.994;22.878;2022-11-15T05:10:07;33.67;;;22.27;;
6566;SDS011;3317;43.994;22.878;2022-11-15T05:12:34;23.47;;;16.33;;
6566;SDS011;3317;43.994;22.878;2022-11-15T05:15:01;29.30;;;15.10;;
6566;SDS011;3317;43.994;22.878;2022-11-15T05:17:29;20.50;;;13.80;;
6566;SDS011;3317;43.994;22.878;2022-11-15T05:19:56;17.80;;;12.20;;
6566;SDS011;3317;43.994;22.878;2022-11-15T05:22:24;16.53;;;11.47;;
6566;SDS011;3317;43.994;22.878;2022-11-15T05:24:51;18.23;;;10.67;;
6566;SDS011;3317;43.994;22.878;2022-11-15T05:27:18;22.17;;;12.83;;
6566;SDS011;3317;43.994;22.878;2022-11-15T05:29:45;16.43;;;9.93;;
6566;SDS011;3317;43.994;22.878;2022-11-15T05:32:12;22.40;;;12.33;;
6566;SDS011;3317;43.994;22.878;2022-11-15T05:34:39;21.53;;;12.57;;
6566;SDS011;3317;43.994;22.878;2022-11-15T05:37:07;22.57;;;12.17;;
6566;SDS011;3317;43.994;22.878;2022-11-15T05:39:37;19.17;;;11.20;;
6566;SDS011;3317;43.994;22.878;2022-11-15T05:42:05;24.13;;;12.93;;
6566;SDS011;3317;43.994;22.878;2022-11-15T05:44:35;19.70;;;11.10;;
6566;SDS011;3317;43.994;22.878;2022-11-15T05:47:03;18.97;;;10.33;;
6566;SDS011;3317;43.994;22.878;2022-11-15T05:49:34;22.73;;;13.33;;
6566;SDS011;3317;43.994;22.878;2022-11-15T05:52:04;25.57;;;13.77;;
6566;SDS011;3317;43.994;22.878;2022-11-15T05:54:33;20.47;;;11.47;;
6566;SDS011;3317;43.994;22.878;2022-11-15T05:57:03;24.40;;;13.60;;
6566;SDS011;3317;43.994;22.878;2022-11-15T05:59:30;28.97;;;16.63;;
6566;SDS011;3317;43.994;22.878;2022-11-15T06:01:59;26.23;;;14.63;;
6566;SDS011;3317;43.994;22.878;2022-11-15T06:04:26;24.90;;;13.40;;
6566;SDS011;3317;43.994;22.878;2022-11-15T06:06:53;28.13;;;15.53;;
6566;SDS011;3317;43.994;22.878;2022-11-15T06:09:20;21.20;;;12.33;;
6566;SDS011;3317;43.994;22.878;2022-11-15T06:11:47;27.50;;;15.07;;
6566;SDS011;3317;43.994;22.878;2022-11-15T06:14:16;26.93;;;15.03;;
6566;SDS011;3317;43.994;22.878;2022-11-15T06:16:43;26.83;;;15.33;;
6566;SDS011;3317;43.994;22.878;2022-11-15T06:19:10;25.57;;;14.00;;
6566;SDS011;3317;43.994;22.878;2022-11-15T06:21:37;30.07;;;15.97;;
6566;SDS011;3317;43.994;22.878;2022-11-15T06:24:04;28.57;;;15.43;;
6566;SDS011;3317;43.994;22.878;2022-11-15T06:26:32;41.97;;;20.07;;
6566;SDS011;3317;43.994;22.878;2022-11-15T06:28:59;30.10;;;16.20;;
6566;SDS011;3317;43.994;22.878;2022-11-15T06:31:27;23.83;;;13.30;;
6566;SDS011;3317;43.994;22.878;2022-11-15T06:33:54;26.83;;;14.23;;
6566;SDS011;3317;43.994;22.878;2022-11-15T06:36:21;29.47;;;16.87;;
6566;SDS011;3317;43.994;22.878;2022-11-15T06:38:48;28.50;;;16.13;;
6566;SDS011;3317;43.994;22.878;2022-11-15T06:41:16;30.27;;;17.00;;
6566;SDS011;3317;43.994;22.878;2022-11-15T06:43:43;33.97;;;17.87;;
6566;SDS011;3317;43.994;22.878;2022-11-15T06:46:10;27.30;;;14.20;;
6566;SDS011;3317;43.994;22.878;2022-11-15T06:48:38;28.03;;;16.20;;
6566;SDS011;3317;43.994;22.878;2022-11-15T06:51:05;32.57;;;17.50;;
6566;SDS011;3317;43.994;22.878;2022-11-15T06:53:33;20.90;;;12.83;;
6566;SDS011;3317;43.994;22.878;2022-11-15T06:56:00;20.47;;;12.50;;
6566;SDS011;3317;43.994;22.878;2022-11-15T06:58:27;30.50;;;17.57;;
6566;SDS011;3317;43.994;22.878;2022-11-15T07:00:57;33.20;;;17.43;;
6566;SDS011;3317;43.994;22.878;2022-11-15T07:03:25;28.93;;;16.87;;
6566;SDS011;3317;43.994;22.878;2022-11-15T07:05:54;23.63;;;14.77;;
6566;SDS011;3317;43.994;22.878;2022-11-15T07:08:22;26.00;;;14.43;;
6566;SDS011;3317;43.994;22.878;2022-11-15T07:10:50;27.60;;;15.80;;
6566;SDS011;3317;43.994;22.878;2022-11-15T07:13:17;29.13;;;17.83;;
6566;SDS011;3317;43.994;22.878;2022-11-15T07:15:44;29.27;;;18.67;;
6566;SDS011;3317;43.994;22.878;2022-11-15T07:18:11;34.77;;;19.23;;
6566;SDS011;3317;43.994;22.878;2022-11-15T07:20:38;32.33;;;16.57;;
6566;SDS011;3317;43.994;22.878;2022-11-15T07:23:07;28.80;;;15.30;;
6566;SDS011;3317;43.994;22.878;2022-11-15T07:25:34;33.50;;;18.60;;
6566;SDS011;3317;43.994;22.878;2022-11-15T07:28:01;35.37;;;17.83;;
6566;SDS011;3317;43.994;22.878;2022-11-15T07:30:29;21.07;;;13.67;;
6566;SDS011;3317;43.994;22.878;2022-11-15T07:32:56;30.50;;;16.13;;
6566;SDS011;3317;43.994;22.878;2022-11-15T07:35:24;35.23;;;18.97;;
6566;SDS011;3317;43.994;22.878;2022-11-15T07:37:53;33.30;;;18.07;;
6566;SDS011;3317;43.994;22.878;2022-11-15T07:40:25;18.00;;;11.97;;
6566;SDS011;3317;43.994;22.878;2022-11-15T07:42:52;33.73;;;20.67;;
6566;SDS011;3317;43.994;22.878;2022-11-15T07:45:25;35.17;;;20.67;;
6566;SDS011;3317;43.994;22.878;2022-11-15T07:47:52;28.50;;;17.43;;
6566;SDS011;3317;43.994;22.878;2022-11-15T07:50:21;20.00;;;12.63;;
6566;SDS011;3317;43.994;22.878;2022-11-15T07:52:52;21.33;;;12.27;;
6566;SDS011;3317;43.994;22.878;2022-11-15T07:55:20;19.73;;;11.70;;
6566;SDS011;3317;43.994;22.878;2022-11-15T07:57:49;24.10;;;14.63;;
6566;SDS011;3317;43.994;22.878;2022-11-15T08:00:16;29.60;;;15.40;;
6566;SDS011;3317;43.994;22.878;2022-11-15T08:02:44;27.20;;;15.90;;
6566;SDS011;3317;43.994;22.878;2022-11-15T08:05:11;24.40;;;13.80;;
6566;SDS011;3317;43.994;22.878;2022-11-15T08:07:39;23.60;;;12.57;;
6566;SDS011;3317;43.994;22.878;2022-11-15T08:10:06;26.80;;;15.80;;
6566;SDS011;3317;43.994;22.878;2022-11-15T08:12:34;27.10;;;14.60;;
6566;SDS011;3317;43.994;22.878;2022-11-15T08:15:02;28.50;;;17.03;;
6566;SDS011;3317;43.994;22.878;2022-11-15T08:17:30;34.17;;;17.53;;
6566;SDS011;3317;43.994;22.878;2022-11-15T08:19:59;39.90;;;21.47;;
6566;SDS011;3317;43.994;22.878;2022-11-15T08:22:26;27.13;;;14.70;;
6566;SDS011;3317;43.994;22.878;2022-11-15T08:24:53;23.70;;;13.10;;
6566;SDS011;3317;43.994;22.878;2022-11-15T08:27:20;40.37;;;21.07;;
6566;SDS011;3317;43.994;22.878;2022-11-15T08:29:48;111.10;;;54.47;;
6566;SDS011;3317;43.994;22.878;2022-11-15T08:32:16;57.40;;;31.07;;
6566;SDS011;3317;43.994;22.878;2022-11-15T08:34:43;21.83;;;13.67;;
6566;SDS011;3317;43.994;22.878;2022-11-15T08:37:10;32.27;;;18.83;;
6566;SDS011;3317;43.994;22.878;2022-11-15T08:39:37;21.70;;;13.50;;
6566;SDS011;3317;43.994;22.878;2022-11-15T08:42:04;18.17;;;11.70;;
6566;SDS011;3317;43.994;22.878;2022-11-15T08:44:31;28.47;;;15.87;;
6566;SDS011;3317;43.994;22.878;2022-11-15T08:47:02;27.80;;;15.53;;
6566;SDS011;3317;43.994;22.878;2022-11-15T08:49:30;25.93;;;14.27;;
6566;SDS011;3317;43.994;22.878;2022-11-15T08:51:59;24.33;;;14.00;;
6566;SDS011;3317;43.994;22.878;2022-11-15T08:54:26;22.53;;;12.77;;
6566;SDS011;3317;43.994;22.878;2022-11-15T08:56:53;26.07;;;14.07;;
6566;SDS011;3317;43.994;22.878;2022-11-15T08:59:20;23.13;;;12.63;;
6566;SDS011;3317;43.994;22.878;2022-11-15T09:01:47;25.33;;;13.53;;
6566;SDS011;3317;43.994;22.878;2022-11-15T09:04:14;21.90;;;12.00;;
6566;SDS011;3317;43.994;22.878;2022-11-15T09:06:43;32.73;;;15.67;;
6566;SDS011;3317;43.994;22.878;2022-11-15T09:09:09;22.60;;;13.97;;
6566;SDS011;3317;43.994;22.878;2022-11-15T09:11:36;22.00;;;12.10;;
6566;SDS011;3317;43.994;22.878;2022-11-15T09:14:03;30.87;;;16.43;;
6566;SDS011;3317;43.994;22.878;2022-11-15T09:16:30;32.10;;;18.63;;
6566;SDS011;3317;43.994;22.878;2022-11-15T09:18:57;28.70;;;16.53;;
6566;SDS011;3317;43.994;22.878;2022-11-15T09:21:24;28.33;;;16.30;;
6566;SDS011;3317;43.994;22.878;2022-11-15T09:23:53;26.60;;;15.93;;
6566;SDS011;3317;43.994;22.878;2022-11-15T09:26:19;29.33;;;15.00;;
6566;SDS011;3317;43.994;22.878;2022-11-15T09:28:46;23.27;;;13.20;;
6566;SDS011;3317;43.994;22.878;2022-11-15T09:31:13;19.60;;;12.07;;
6566;SDS011;3317;43.994;22.878;2022-11-15T09:33:42;25.57;;;12.83;;
6566;SDS011;3317;43.994;22.878;2022-11-15T09:36:10;24.43;;;13.47;;
6566;SDS011;3317;43.994;22.878;2022-11-15T09:38:37;21.17;;;11.80;;
6566;SDS011;3317;43.994;22.878;2022-11-15T09:44:13;25.03;;;12.30;;
6566;SDS011;3317;43.994;22.878;2022-11-15T09:46:54;23.20;;;13.77;;
6566;SDS011;3317;43.994;22.878;2022-11-15T09:49:27;23.30;;;13.30;;
6566;SDS011;3317;43.994;22.878;2022-11-15T09:51:56;21.03;;;11.77;;
6566;SDS011;3317;43.994;22.878;2022-11-15T09:54:26;27.57;;;13.43;;
6566;SDS011;3317;43.994;22.878;2022-11-15T09:57:02;22.33;;;12.50;;
6566;SDS011;3317;43.994;22.878;2022-11-15T09:59:37;21.00;;;12.20;;
6566;SDS011;3317;43.994;22.878;2022-11-15T10:02:15;21.73;;;12.70;;
6566;SDS011;3317;43.994;22.878;2022-11-15T10:04:50;23.87;;;13.00;;
6566;SDS011;3317;43.994;22.878;2022-11-15T10:07:18;21.43;;;12.40;;
6566;SDS011;3317;43.994;22.878;2022-11-15T10:09:51;21.70;;;14.30;;
6566;SDS011;3317;43.994;22.878;2022-11-15T10:12:23;18.80;;;11.73;;
6566;SDS011;3317;43.994;22.878;2022-11-15T10:14:55;20.23;;;11.60;;
6566;SDS011;3317;43.994;22.878;2022-11-15T10:17:33;19.00;;;11.73;;
6566;SDS011;3317;43.994;22.878;2022-11-15T10:20:16;23.53;;;13.10;;
6566;SDS011;3317;43.994;22.878;2022-11-15T10:22:48;26.83;;;13.73;;
6566;SDS011;3317;43.994;22.878;2022-11-15T10:25:21;30.70;;;15.83;;
6566;SDS011;3317;43.994;22.878;2022-11-15T10:27:55;26.97;;;14.77;;
6566;SDS011;3317;43.994;22.878;2022-11-15T10:30:23;23.50;;;14.10;;
6566;SDS011;3317;43.994;22.878;2022-11-15T10:32:57;21.30;;;12.20;;
6566;SDS011;3317;43.994;22.878;2022-11-15T10:35:25;19.10;;;10.97;;
6566;SDS011;3317;43.994;22.878;2022-11-15T10:38:04;21.27;;;11.30;;
6566;SDS011;3317;43.994;22.878;2022-11-15T10:40:31;19.53;;;11.23;;
6566;SDS011;3317;43.994;22.878;2022-11-15T10:43:05;18.67;;;11.20;;
6566;SDS011;3317;43.994;22.878;2022-11-15T10:45:40;18.40;;;10.17;;
6566;SDS011;3317;43.994;22.878;2022-11-15T10:48:20;12.30;;;8.30;;
6566;SDS011;3317;43.994;22.878;2022-11-15T10:50:49;23.40;;;11.27;;
6566;SDS011;3317;43.994;22.878;2022-11-15T10:53:20;17.37;;;9.77;;
6566;SDS011;3317;43.994;22.878;2022-11-15T10:55:50;17.03;;;9.23;;
6566;SDS011;3317;43.994;22.878;2022-11-15T10:58:21;14.77;;;9.03;;
6566;SDS011;3317;43.994;22.878;2022-11-15T11:01:04;14.47;;;8.60;;
6566;SDS011;3317;43.994;22.878;2022-11-15T11:03:36;17.70;;;10.20;;
6566;SDS011;3317;43.994;22.878;2022-11-15T11:06:05;14.63;;;9.53;;
6566;SDS011;3317;43.994;22.878;2022-11-15T11:08:34;12.50;;;8.40;;
6566;SDS011;3317;43.994;22.878;2022-11-15T11:11:02;13.13;;;8.50;;
6566;SDS011;3317;43.994;22.878;2022-11-15T11:13:32;11.27;;;7.53;;
6566;SDS011;3317;43.994;22.878;2022-11-15T11:16:05;11.50;;;7.10;;
6566;SDS011;3317;43.994;22.878;2022-11-15T11:18:44;15.67;;;8.40;;
6566;SDS011;3317;43.994;22.878;2022-11-15T11:21:19;14.57;;;8.40;;
6566;SDS011;3317;43.994;22.878;2022-11-15T11:23:53;15.00;;;9.00;;
6566;SDS011;3317;43.994;22.878;2022-11-15T11:26:31;15.97;;;8.40;;
6566;SDS011;3317;43.994;22.878;2022-11-15T11:29:11;16.37;;;9.50;;
6566;SDS011;3317;43.994;22.878;2022-11-15T11:31:51;13.63;;;8.13;;
6566;SDS011;3317;43.994;22.878;2022-11-15T11:34:29;11.43;;;8.00;;
6566;SDS011;3317;43.994;22.878;2022-11-15T11:37:09;14.70;;;9.73;;
6566;SDS011;3317;43.994;22.878;2022-11-15T11:39:43;13.50;;;8.43;;
6566;SDS011;3317;43.994;22.878;2022-11-15T11:42:23;13.93;;;9.03;;
6566;SDS011;3317;43.994;22.878;2022-11-15T11:45:00;19.63;;;11.00;;
6566;SDS011;3317;43.994;22.878;2022-11-15T11:47:43;16.67;;;9.50;;
6566;SDS011;3317;43.994;22.878;2022-11-15T11:50:14;17.53;;;10.30;;
6566;SDS011;3317;43.994;22.878;2022-11-15T11:52:48;15.10;;;9.47;;
6566;SDS011;3317;43.994;22.878;2022-11-15T11:55:23;19.53;;;11.00;;
6566;SDS011;3317;43.994;22.878;2022-11-15T11:57:57;15.30;;;9.40;;
6566;SDS011;3317;43.994;22.878;2022-11-15T12:00:31;13.10;;;8.60;;
6566;SDS011;3317;43.994;22.878;2022-11-15T12:03:05;14.53;;;8.37;;
6566;SDS011;3317;43.994;22.878;2022-11-15T12:05:39;16.27;;;8.90;;
6566;SDS011;3317;43.994;22.878;2022-11-15T12:11:00;13.93;;;9.07;;
6566;SDS011;3317;43.994;22.878;2022-11-15T12:13:33;13.60;;;9.10;;
6566;SDS011;3317;43.994;22.878;2022-11-15T12:16:05;13.50;;;8.50;;
6566;SDS011;3317;43.994;22.878;2022-11-15T12:18:37;19.47;;;9.40;;
6566;SDS011;3317;43.994;22.878;2022-11-15T12:21:06;16.20;;;9.83;;
6566;SDS011;3317;43.994;22.878;2022-11-15T12:23:48;13.70;;;8.10;;
6566;SDS011;3317;43.994;22.878;2022-11-15T12:26:19;12.93;;;7.97;;
6566;SDS011;3317;43.994;22.878;2022-11-15T12:28:50;13.33;;;8.53;;
6566;SDS011;3317;43.994;22.878;2022-11-15T12:31:24;13.90;;;7.63;;
6566;SDS011;3317;43.994;22.878;2022-11-15T12:34:01;14.40;;;8.83;;
6566;SDS011;3317;43.994;22.878;2022-11-15T12:36:33;14.80;;;9.20;;
6566;SDS011;3317;43.994;22.878;2022-11-15T12:39:03;17.70;;;8.70;;
6566;SDS011;3317;43.994;22.878;2022-11-15T12:41:31;19.20;;;9.53;;
6566;SDS011;3317;43.994;22.878;2022-11-15T12:43:59;15.63;;;8.77;;
6566;SDS011;3317;43.994;22.878;2022-11-15T12:49:43;16.47;;;9.90;;
6566;SDS011;3317;43.994;22.878;2022-11-15T12:52:12;16.23;;;10.50;;
6566;SDS011;3317;43.994;22.878;2022-11-15T12:54:52;18.23;;;11.20;;
6566;SDS011;3317;43.994;22.878;2022-11-15T12:57:37;17.40;;;9.73;;
6566;SDS011;3317;43.994;22.878;2022-11-15T13:05:58;21.03;;;11.00;;
6566;SDS011;3317;43.994;22.878;2022-11-15T13:08:46;17.27;;;10.60;;
6566;SDS011;3317;43.994;22.878;2022-11-15T13:17:31;14.47;;;8.77;;
6566;SDS011;3317;43.994;22.878;2022-11-15T13:20:21;19.80;;;10.50;;
6566;SDS011;3317;43.994;22.878;2022-11-15T13:22:50;19.70;;;11.40;;
6566;SDS011;3317;43.994;22.878;2022-11-15T13:25:23;19.80;;;11.53;;
6566;SDS011;3317;43.994;22.878;2022-11-15T13:28:00;18.70;;;10.80;;
6566;SDS011;3317;43.994;22.878;2022-11-15T13:30:29;17.40;;;10.90;;
6566;SDS011;3317;43.994;22.878;2022-11-15T13:32:57;17.83;;;10.70;;
6566;SDS011;3317;43.994;22.878;2022-11-15T13:35:38;16.60;;;10.70;;
6566;SDS011;3317;43.994;22.878;2022-11-15T13:38:17;15.07;;;9.77;;
6566;SDS011;3317;43.994;22.878;2022-11-15T13:40:46;14.20;;;9.37;;
6566;SDS011;3317;43.994;22.878;2022-11-15T13:43:19;15.67;;;10.10;;
6566;SDS011;3317;43.994;22.878;2022-11-15T13:46:03;15.00;;;9.50;;
6566;SDS011;3317;43.994;22.878;2022-11-15T13:48:36;21.80;;;12.30;;
6566;SDS011;3317;43.994;22.878;2022-11-15T13:51:06;18.47;;;11.57;;
6566;SDS011;3317;43.994;22.878;2022-11-15T13:53:40;23.37;;;13.27;;
6566;SDS011;3317;43.994;22.878;2022-11-15T13:56:11;18.10;;;10.80;;
6566;SDS011;3317;43.994;22.878;2022-11-15T13:58:39;16.50;;;9.60;;
6566;SDS011;3317;43.994;22.878;2022-11-15T14:01:06;15.43;;;9.60;;
6566;SDS011;3317;43.994;22.878;2022-11-15T14:03:41;15.50;;;9.60;;
6566;SDS011;3317;43.994;22.878;2022-11-15T14:06:17;15.53;;;10.17;;
6566;SDS011;3317;43.994;22.878;2022-11-15T14:08:58;19.83;;;11.17;;
6566;SDS011;3317;43.994;22.878;2022-11-15T14:11:51;16.40;;;11.10;;
6566;SDS011;3317;43.994;22.878;2022-11-15T14:14:20;19.67;;;11.80;;
6566;SDS011;3317;43.994;22.878;2022-11-15T14:16:51;20.67;;;13.00;;
6566;SDS011;3317;43.994;22.878;2022-11-15T14:19:36;20.73;;;13.23;;
6566;SDS011;3317;43.994;22.878;2022-11-15T14:22:17;20.83;;;13.10;;
6566;SDS011;3317;43.994;22.878;2022-11-15T14:27:39;15.40;;;10.20;;
6566;SDS011;3317;43.994;22.878;2022-11-15T14:30:12;16.83;;;10.57;;
6566;SDS011;3317;43.994;22.878;2022-11-15T14:32:41;17.90;;;9.70;;
6566;SDS011;3317;43.994;22.878;2022-11-15T14:35:12;20.10;;;12.73;;
6566;SDS011;3317;43.994;22.878;2022-11-15T14:37:43;15.33;;;9.77;;
6566;SDS011;3317;43.994;22.878;2022-11-15T14:40:12;31.07;;;14.63;;
6566;SDS011;3317;43.994;22.878;2022-11-15T14:42:40;23.13;;;13.23;;
6566;SDS011;3317;43.994;22.878;2022-11-15T14:45:09;23.30;;;13.07;;
6566;SDS011;3317;43.994;22.878;2022-11-15T14:47:39;21.00;;;12.63;;
6566;SDS011;3317;43.994;22.878;2022-11-15T14:50:10;15.13;;;10.10;;
6566;SDS011;3317;43.994;22.878;2022-11-15T14:52:38;20.43;;;11.53;;
6566;SDS011;3317;43.994;22.878;2022-11-15T14:55:12;20.60;;;12.70;;
6566;SDS011;3317;43.994;22.878;2022-11-15T14:57:44;18.47;;;12.07;;
6566;SDS011;3317;43.994;22.878;2022-11-15T15:00:12;17.80;;;11.10;;
6566;SDS011;3317;43.994;22.878;2022-11-15T15:02:39;17.10;;;10.23;;
6566;SDS011;3317;43.994;22.878;2022-11-15T15:05:14;13.83;;;9.10;;
6566;SDS011;3317;43.994;22.878;2022-11-15T15:07:44;13.00;;;8.30;;
6566;SDS011;3317;43.994;22.878;2022-11-15T15:10:13;15.60;;;10.00;;
6566;SDS011;3317;43.994;22.878;2022-11-15T15:12:41;15.20;;;9.00;;
6566;SDS011;3317;43.994;22.878;2022-11-15T15:15:12;17.43;;;10.53;;
6566;SDS011;3317;43.994;22.878;2022-11-15T15:17:40;15.80;;;10.43;;
6566;SDS011;3317;43.994;22.878;2022-11-15T15:20:08;15.07;;;9.37;;
6566;SDS011;3317;43.994;22.878;2022-11-15T15:22:35;13.63;;;9.20;;
6566;SDS011;3317;43.994;22.878;2022-11-15T15:25:07;13.47;;;8.87;;
6566;SDS011;3317;43.994;22.878;2022-11-15T15:27:46;13.60;;;8.10;;